createdAt,value
2023-03-04T00:00:26.356Z,5.71
2023-03-04T00:02:58.306Z,5.65
2023-03-04T00:05:27.093Z,5.34
2023-03-04T00:08:01.492Z,5.39
2023-03-04T00:10:32.465Z,5.42
2023-03-04T00:13:04.982Z,5.59
2023-03-04T00:15:34.332Z,5.55
2023-03-04T00:18:20.387Z,5.30
2023-03-04T00:20:58.142Z,5.24
2023-03-04T00:23:30.484Z,5.47
2023-03-04T00:26:04.091Z,5.47
2023-03-04T00:28:33.348Z,5.37
2023-03-04T00:31:02.258Z,5.62
2023-03-04T00:33:36.784Z,5.59
2023-03-04T00:36:06.133Z,5.62
2023-03-04T00:38:37.980Z,5.57
2023-03-04T00:41:08.117Z,5.47
2023-03-04T00:43:36.576Z,5.22
2023-03-04T00:46:07.498Z,5.32
2023-03-04T00:48:42.871Z,5.17
2023-03-04T00:51:11.250Z,5.38
2023-03-04T00:53:42.230Z,5.36
2023-03-04T00:56:18.756Z,5.35
2023-03-04T00:58:50.421Z,5.34
2023-03-04T01:01:20.629Z,5.42
2023-03-04T01:03:57.266Z,5.47
2023-03-04T01:06:33.674Z,5.39
2023-03-04T01:09:10.609Z,5.54
2023-03-04T01:11:44.592Z,5.59
2023-03-04T01:14:18.603Z,5.30
2023-03-04T01:16:49.598Z,5.60
2023-03-04T01:19:21.650Z,5.39
2023-03-04T01:21:55.869Z,5.38
2023-03-04T01:24:32.770Z,5.52
2023-03-04T01:27:06.112Z,5.39
2023-03-04T01:29:35.288Z,5.28
2023-03-04T01:32:05.557Z,5.14
2023-03-04T01:34:34.406Z,5.07
2023-03-04T01:37:09.266Z,5.06
2023-03-04T01:39:39.583Z,5.06
2023-03-04T01:42:19.566Z,4.96
2023-03-04T01:44:59.106Z,5.10
2023-03-04T01:47:30.829Z,4.76
2023-03-04T01:50:02.403Z,4.74
2023-03-04T01:52:32.600Z,4.76
2023-03-04T01:55:01.485Z,4.60
2023-03-04T01:57:37.259Z,4.49
2023-03-04T02:00:22.387Z,4.47
2023-03-04T02:02:55.774Z,4.50
2023-03-04T02:05:33.364Z,4.55
2023-03-04T02:08:13.029Z,4.85
2023-03-04T02:10:44.087Z,4.40
2023-03-04T02:13:25.902Z,4.52
2023-03-04T02:16:01.683Z,4.36
2023-03-04T02:18:35.884Z,4.43
2023-03-04T02:21:11.051Z,4.65
2023-03-04T02:23:48.894Z,4.58
2023-03-04T02:26:24.780Z,4.69
2023-03-04T02:28:58.552Z,4.63
2023-03-04T02:31:37.631Z,4.56
2023-03-04T02:34:09.857Z,4.51
2023-03-04T02:36:43.156Z,4.56
2023-03-04T02:39:23.176Z,4.50
2023-03-04T02:41:55.562Z,4.59
2023-03-04T02:44:28.750Z,4.51
2023-03-04T02:47:02.466Z,4.70
2023-03-04T02:49:34.650Z,4.80
2023-03-04T02:52:09.424Z,4.67
2023-03-04T02:54:41.626Z,4.67
2023-03-04T02:57:23.794Z,4.69
2023-03-04T02:59:58.736Z,4.76
2023-03-04T03:02:29.333Z,4.88
2023-03-04T03:04:59.700Z,5.26
2023-03-04T03:07:35.904Z,4.99
2023-03-04T03:10:06.928Z,4.93
2023-03-04T03:12:38.787Z,4.96
2023-03-04T03:15:09.246Z,4.93
2023-03-04T03:17:38.609Z,4.85
2023-03-04T03:20:14.406Z,4.84
2023-03-04T03:22:46.708Z,4.90
2023-03-04T03:25:17.641Z,4.97
2023-03-04T03:27:49.716Z,4.91
2023-03-04T03:30:20.897Z,4.92
2023-03-04T03:32:50.491Z,4.95
2023-03-04T03:35:22.716Z,4.88
2023-03-04T03:37:52.344Z,4.75
2023-03-04T03:40:28.721Z,4.70
2023-03-04T03:43:00.976Z,4.76
2023-03-04T03:45:33.078Z,4.78
2023-03-04T03:48:04.247Z,4.87
2023-03-04T03:50:34.053Z,4.93
2023-03-04T03:53:02.589Z,5.10
2023-03-04T03:55:33.794Z,5.07
2023-03-04T03:58:08.245Z,5.10
2023-03-04T04:00:39.953Z,5.48
2023-03-04T04:03:09.681Z,5.51
2023-03-04T04:05:43.101Z,5.40
2023-03-04T04:08:14.691Z,5.75
2023-03-04T04:10:43.957Z,5.61
2023-03-04T04:13:20.413Z,5.52
2023-03-04T04:15:52.298Z,5.61
2023-03-04T04:18:20.662Z,5.50
2023-03-04T04:20:54.648Z,5.94
2023-03-04T04:23:24.237Z,5.57
2023-03-04T04:25:55.132Z,5.77
2023-03-04T04:28:26.518Z,5.91
2023-03-04T04:30:58.446Z,6.22
2023-03-04T04:33:33.591Z,6.07
2023-03-04T04:36:07.214Z,5.89
2023-03-04T04:38:44.805Z,5.78
2023-03-04T04:41:21.586Z,5.97
2023-03-04T04:44:00.125Z,6.11
2023-03-04T04:46:32.053Z,5.98
2023-03-04T04:49:01.537Z,5.90
2023-03-04T04:51:42.285Z,5.95
2023-03-04T04:54:12.111Z,6.01
2023-03-04T04:56:43.117Z,6.26
2023-03-04T04:59:20.143Z,6.13
2023-03-04T05:01:58.902Z,6.41
2023-03-04T05:04:30.324Z,6.09
2023-03-04T05:07:03.874Z,6.24
2023-03-04T05:09:42.250Z,6.15
2023-03-04T05:12:14.081Z,6.52
2023-03-04T05:14:52.740Z,6.19
2023-03-04T05:17:21.922Z,6.40
2023-03-04T05:19:53.868Z,6.16
2023-03-04T05:22:32.909Z,6.33
2023-03-04T05:25:04.190Z,6.51
2023-03-04T05:27:40.431Z,6.31
2023-03-04T05:30:17.250Z,6.49
2023-03-04T05:32:46.779Z,6.52
2023-03-04T05:35:17.743Z,6.45
2023-03-04T05:37:49.257Z,6.34
2023-03-04T05:40:20.309Z,6.43
2023-03-04T05:42:50.677Z,6.40
2023-03-04T05:45:23.148Z,6.43
2023-03-04T05:47:57.552Z,6.52
2023-03-04T05:50:31.290Z,6.27
2023-03-04T05:53:01.400Z,6.45
2023-03-04T05:55:32.325Z,6.70
2023-03-04T05:58:10.126Z,6.49
2023-03-04T06:00:46.260Z,6.60
2023-03-04T06:03:25.004Z,6.50
2023-03-04T06:05:55.027Z,6.56
2023-03-04T06:08:23.981Z,6.65
2023-03-04T06:10:54.766Z,6.54
2023-03-04T06:13:23.680Z,6.47
2023-03-04T06:16:04.112Z,6.55
2023-03-04T06:18:35.563Z,6.51
2023-03-04T06:21:06.596Z,6.61
2023-03-04T06:23:37.563Z,6.60
2023-03-04T06:26:21.938Z,6.58
2023-03-04T06:28:53.149Z,6.76
2023-03-04T06:31:31.894Z,6.67
2023-03-04T06:34:03.812Z,6.64
2023-03-04T06:36:35.667Z,6.54
2023-03-04T06:39:05.149Z,6.61
2023-03-04T06:41:37.042Z,6.69
2023-03-04T06:44:09.003Z,6.77
2023-03-04T06:46:44.341Z,6.88
2023-03-04T06:49:15.422Z,6.90
2023-03-04T06:51:52.384Z,6.98
2023-03-04T06:54:24.128Z,7.03
2023-03-04T06:56:53.581Z,6.98
2023-03-04T06:59:24.020Z,6.95
2023-03-04T07:01:58.717Z,6.93
2023-03-04T07:04:35.065Z,7.04
2023-03-04T07:07:04.665Z,7.14
2023-03-04T07:09:33.704Z,7.05
2023-03-04T07:12:03.065Z,7.27
2023-03-04T07:14:34.196Z,7.21
2023-03-04T07:17:20.894Z,7.15
2023-03-04T07:19:49.753Z,7.18
2023-03-04T07:22:22.445Z,7.25
2023-03-04T07:24:50.630Z,7.23
2023-03-04T07:27:26.057Z,7.28
2023-03-04T07:29:54.985Z,7.50
2023-03-04T07:32:36.710Z,7.46
2023-03-04T07:35:06.430Z,7.52
2023-03-04T07:37:36.092Z,7.51
2023-03-04T07:40:06.188Z,7.58
2023-03-04T07:42:35.881Z,7.64
2023-03-04T07:45:21.119Z,7.60
2023-03-04T07:47:54.957Z,7.69
2023-03-04T07:50:24.201Z,7.74
2023-03-04T07:52:54.921Z,7.73
2023-03-04T07:55:23.879Z,7.82
2023-03-04T07:57:55.680Z,7.77
2023-03-04T08:00:32.486Z,7.74
2023-03-04T08:03:06.567Z,7.83
2023-03-04T08:05:34.998Z,7.98
2023-03-04T08:08:07.181Z,7.94
2023-03-04T08:10:41.016Z,8.00
2023-03-04T08:13:11.230Z,8.10
2023-03-04T08:15:43.305Z,8.02
2023-03-04T08:18:15.129Z,8.04
2023-03-04T08:20:47.272Z,8.08
2023-03-04T08:23:22.213Z,8.13
2023-03-04T08:25:51.899Z,8.17
2023-03-04T08:28:20.221Z,8.18
2023-03-04T08:30:54.570Z,8.23
2023-03-04T08:33:35.848Z,8.32
2023-03-04T08:36:12.592Z,8.36
2023-03-04T08:38:49.589Z,8.37
2023-03-04T08:41:25.481Z,8.38
2023-03-04T08:43:54.977Z,8.56
2023-03-04T08:46:26.165Z,8.44
2023-03-04T08:48:57.263Z,8.52
2023-03-04T08:51:28.387Z,8.47
2023-03-04T08:53:56.922Z,8.49
2023-03-04T08:56:36.859Z,8.55
2023-03-04T08:59:08.752Z,8.52
2023-03-04T09:01:38.289Z,8.60
2023-03-04T09:04:19.878Z,8.59
2023-03-04T09:06:52.875Z,8.67
2023-03-04T09:09:23.771Z,8.76
2023-03-04T09:11:52.766Z,8.91
2023-03-04T09:14:22.620Z,8.85
2023-03-04T09:16:51.442Z,9.05
2023-03-04T09:19:32.624Z,9.08
2023-03-04T09:22:03.186Z,9.08
2023-03-04T09:24:40.252Z,9.21
2023-03-04T09:27:12.887Z,9.13
2023-03-04T09:29:51.289Z,9.13
2023-03-04T09:32:25.400Z,9.25
2023-03-04T09:35:06.343Z,9.19
2023-03-04T09:37:45.939Z,9.19
2023-03-04T09:40:19.549Z,9.48
2023-03-04T09:42:52.359Z,9.58
2023-03-04T09:45:26.912Z,9.66
2023-03-04T09:47:58.646Z,9.69
2023-03-04T09:50:32.866Z,9.99
2023-03-04T09:53:09.347Z,9.93
2023-03-04T09:55:41.005Z,9.99
2023-03-04T09:58:28.820Z,10.04
2023-03-04T10:01:04.123Z,10.33
2023-03-04T10:03:48.458Z,10.05
2023-03-04T10:06:29.314Z,10.10
2023-03-04T10:09:09.052Z,10.28
2023-03-04T10:11:46.905Z,10.06
2023-03-04T10:14:30.644Z,10.00
2023-03-04T10:17:05.073Z,10.25
2023-03-04T10:19:45.874Z,10.21
2023-03-04T10:22:28.585Z,10.38
2023-03-04T10:25:07.532Z,10.03
2023-03-04T10:27:35.884Z,9.93
2023-03-04T10:30:08.136Z,9.97
2023-03-04T10:32:37.443Z,10.02
2023-03-04T10:35:16.023Z,10.09
2023-03-04T10:37:54.245Z,10.12
2023-03-04T10:40:28.982Z,10.27
2023-03-04T10:42:59.909Z,10.35
2023-03-04T10:45:42.764Z,10.34
2023-03-04T10:48:25.966Z,10.37
2023-03-04T10:51:17.333Z,10.47
2023-03-04T10:53:49.900Z,10.61
2023-03-04T10:56:42.102Z,10.64
2023-03-04T10:59:55.208Z,10.49
2023-03-04T11:02:37.967Z,10.89
2023-03-04T11:05:23.779Z,10.95
2023-03-04T11:08:05.857Z,10.84
2023-03-04T11:10:52.507Z,11.03
2023-03-04T11:13:27.802Z,11.01
2023-03-04T11:16:00.009Z,11.12
2023-03-04T11:18:39.707Z,11.19
2023-03-04T11:21:17.000Z,11.19
2023-03-04T11:23:52.161Z,11.12
2023-03-04T11:26:29.951Z,11.15
2023-03-04T11:29:05.520Z,11.09
2023-03-04T11:31:40.731Z,10.94
2023-03-04T11:34:21.140Z,10.99
2023-03-04T11:36:57.231Z,10.93
2023-03-04T11:39:41.544Z,11.08
2023-03-04T11:42:27.072Z,11.21
2023-03-04T11:44:59.057Z,11.32
2023-03-04T11:47:46.491Z,11.19
2023-03-04T11:50:44.332Z,11.13
2023-03-04T11:53:35.307Z,11.04
2023-03-04T11:56:29.973Z,11.15
2023-03-04T11:59:37.939Z,11.14
2023-03-04T12:02:16.300Z,11.47
2023-03-04T12:05:20.833Z,11.49
2023-03-04T12:08:22.147Z,11.51
2023-03-04T12:11:07.779Z,11.68
2023-03-04T12:14:26.501Z,11.18
2023-03-04T12:17:39.620Z,11.50
2023-03-04T12:20:29.579Z,11.54
2023-03-04T12:23:08.699Z,11.76
2023-03-04T12:25:49.671Z,12.02
2023-03-04T12:28:37.968Z,11.89
2023-03-04T12:31:36.419Z,11.91
2023-03-04T12:34:34.186Z,11.98
2023-03-04T12:37:52.888Z,11.78
2023-03-04T12:40:34.741Z,12.00
2023-03-04T12:43:16.056Z,12.02
2023-03-04T12:45:49.075Z,11.87
2023-03-04T12:48:32.034Z,11.87
2023-03-04T12:51:15.214Z,12.18
2023-03-04T12:53:52.050Z,11.92
2023-03-04T12:56:25.011Z,11.85
2023-03-04T12:58:57.025Z,11.83
2023-03-04T13:01:29.076Z,11.73
2023-03-04T13:04:09.110Z,11.56
2023-03-04T13:06:47.935Z,11.66
2023-03-04T13:09:26.957Z,11.61
2023-03-04T13:12:10.248Z,11.30
2023-03-04T13:14:48.048Z,11.33
2023-03-04T13:17:43.873Z,11.37
2023-03-04T13:20:42.841Z,11.46
2023-03-04T13:23:46.133Z,11.64
2023-03-04T13:26:25.380Z,11.36
2023-03-04T13:28:58.171Z,11.29
2023-03-04T13:31:38.870Z,10.97
2023-03-04T13:34:15.296Z,11.11
2023-03-04T13:37:15.064Z,10.95
2023-03-04T13:39:48.290Z,11.11
2023-03-04T13:42:48.029Z,11.18
2023-03-04T13:45:35.520Z,11.08
2023-03-04T13:48:11.193Z,10.98
2023-03-04T13:50:45.436Z,11.18
2023-03-04T13:53:39.772Z,11.12
2023-03-04T13:56:35.857Z,11.08
2023-03-04T13:59:31.789Z,11.08
2023-03-04T14:02:29.044Z,11.15
2023-03-04T14:05:05.023Z,11.23
2023-03-04T14:07:35.629Z,11.18
2023-03-04T14:10:33.750Z,11.14
2023-03-04T14:13:04.391Z,11.10
2023-03-04T14:15:35.492Z,11.23
2023-03-04T14:18:06.547Z,11.30
2023-03-04T14:20:38.593Z,11.34
2023-03-04T14:23:28.886Z,11.56
2023-03-04T14:26:22.366Z,11.37
2023-03-04T14:29:01.752Z,11.28
2023-03-04T14:31:35.816Z,11.29
2023-03-04T14:34:07.847Z,11.11
2023-03-04T14:36:46.264Z,11.17
2023-03-04T14:39:19.325Z,11.17
2023-03-04T14:41:53.928Z,11.19
2023-03-04T14:44:36.202Z,11.47
2023-03-04T14:47:16.907Z,11.56
2023-03-04T14:49:45.909Z,11.33
2023-03-04T14:52:45.273Z,11.37
2023-03-04T14:55:24.685Z,10.92
2023-03-04T14:58:19.798Z,10.46
2023-03-04T15:00:57.926Z,10.49
2023-03-04T15:03:38.289Z,9.86
2023-03-04T15:06:12.014Z,9.67
2023-03-04T15:08:53.841Z,9.66
2023-03-04T15:11:28.426Z,9.62
2023-03-04T15:14:07.769Z,9.45
2023-03-04T15:16:56.357Z,9.66
2023-03-04T15:19:29.903Z,9.61
2023-03-04T15:22:08.591Z,9.54
2023-03-04T15:24:41.628Z,9.54
2023-03-04T15:27:26.994Z,9.20
2023-03-04T15:30:19.751Z,9.39
2023-03-04T15:32:57.409Z,9.28
2023-03-04T15:35:33.006Z,9.07
2023-03-04T15:38:02.626Z,8.61
2023-03-04T15:40:34.247Z,8.55
2023-03-04T15:43:06.850Z,8.56
2023-03-04T15:45:54.390Z,8.54
2023-03-04T15:48:31.546Z,8.77
2023-03-04T15:51:11.491Z,8.86
2023-03-04T15:53:45.721Z,8.88
2023-03-04T15:56:22.356Z,8.65
2023-03-04T15:58:56.715Z,8.71
2023-03-04T16:01:29.955Z,8.48
2023-03-04T16:04:10.218Z,8.42
2023-03-04T16:06:41.163Z,8.21
2023-03-04T16:09:14.437Z,8.23
2023-03-04T16:11:47.729Z,8.44
2023-03-04T16:14:27.970Z,8.08
2023-03-04T16:17:02.273Z,7.82
2023-03-04T16:19:34.329Z,7.92
2023-03-04T16:22:07.969Z,7.90
2023-03-04T16:24:38.218Z,7.88
2023-03-04T16:27:14.883Z,7.79
2023-03-04T16:29:45.241Z,7.54
2023-03-04T16:32:25.500Z,7.59
2023-03-04T16:34:59.119Z,7.59
2023-03-04T16:37:30.060Z,7.40
2023-03-04T16:40:09.808Z,7.56
2023-03-04T16:42:41.038Z,7.33
2023-03-04T16:45:22.310Z,7.23
2023-03-04T16:47:57.271Z,7.21
2023-03-04T16:50:31.415Z,7.39
2023-03-04T16:53:04.867Z,7.18
2023-03-04T16:55:37.137Z,7.18
2023-03-04T16:58:08.302Z,7.13
2023-03-04T17:00:38.569Z,6.81
2023-03-04T17:03:17.092Z,7.04
2023-03-04T17:05:47.810Z,7.17
2023-03-04T17:08:22.391Z,6.70
2023-03-04T17:10:52.723Z,7.02
2023-03-04T17:13:30.529Z,6.82
2023-03-04T17:16:24.308Z,6.93
2023-03-04T17:19:12.514Z,7.00
2023-03-04T17:24:36.601Z,6.57
2023-03-04T17:27:23.698Z,6.79
2023-03-04T17:30:04.579Z,6.62
2023-03-04T17:32:41.413Z,6.66
2023-03-04T17:35:34.983Z,6.75
2023-03-04T17:38:05.444Z,6.42
2023-03-04T17:40:35.752Z,6.60
2023-03-04T17:43:21.169Z,6.41
2023-03-04T17:46:00.989Z,6.49
2023-03-04T17:48:30.700Z,6.30
2023-03-04T17:51:05.994Z,6.23
2023-03-04T17:53:36.560Z,6.34
2023-03-04T17:56:08.183Z,6.32
2023-03-04T17:58:45.366Z,6.40
2023-03-04T18:01:24.575Z,6.48
2023-03-04T18:03:55.588Z,6.42
2023-03-04T18:06:29.462Z,6.34
2023-03-04T18:09:12.207Z,6.45
2023-03-04T18:11:47.479Z,6.34
2023-03-04T18:14:21.899Z,6.53
2023-03-04T18:17:01.879Z,6.45
2023-03-04T18:19:41.560Z,6.58
2023-03-04T18:22:26.091Z,6.15
2023-03-04T18:24:57.625Z,6.05
2023-03-04T18:27:39.966Z,6.07
2023-03-04T18:30:27.182Z,6.34
2023-03-04T18:33:08.219Z,6.20
2023-03-04T18:35:42.981Z,6.11
2023-03-04T18:38:15.636Z,6.38
2023-03-04T18:40:58.568Z,6.26
2023-03-04T18:43:29.653Z,6.15
2023-03-04T18:46:09.564Z,5.93
2023-03-04T18:48:44.257Z,5.86
2023-03-04T18:51:24.641Z,6.06
2023-03-04T18:54:00.327Z,5.94
2023-03-04T18:56:43.742Z,6.07
2023-03-04T18:59:26.386Z,6.00
2023-03-04T19:02:15.920Z,5.86
2023-03-04T19:05:23.427Z,5.86
2023-03-04T19:08:05.555Z,5.82
2023-03-04T19:10:48.002Z,5.68
2023-03-04T19:13:26.049Z,5.76
2023-03-04T19:16:05.054Z,5.86
2023-03-04T19:18:39.012Z,5.68
2023-03-04T19:21:18.484Z,5.85
2023-03-04T19:23:55.227Z,5.75
2023-03-04T19:26:31.328Z,5.66
2023-03-04T19:29:02.813Z,5.66
2023-03-04T19:31:41.795Z,5.72
2023-03-04T19:34:18.649Z,5.71
2023-03-04T19:36:51.537Z,5.91
2023-03-04T19:39:22.560Z,5.60
2023-03-04T19:42:01.868Z,5.61
2023-03-04T19:44:37.856Z,5.55
2023-03-04T19:47:14.966Z,5.29
2023-03-04T19:49:55.566Z,5.60
2023-03-04T19:52:26.894Z,5.85
2023-03-04T19:55:05.489Z,5.78
2023-03-04T19:57:40.570Z,5.54
2023-03-04T20:00:13.693Z,5.52
2023-03-04T20:02:52.649Z,5.57
2023-03-04T20:05:36.227Z,5.64
2023-03-04T20:08:07.383Z,5.47
2023-03-04T20:10:39.908Z,5.54
2023-03-04T20:13:11.580Z,5.34
2023-03-04T20:15:47.452Z,5.55
2023-03-04T20:18:25.538Z,5.44
2023-03-04T20:20:58.891Z,5.54
2023-03-04T20:23:32.019Z,5.52
2023-03-04T20:26:10.732Z,5.22
2023-03-04T20:28:58.129Z,5.24
2023-03-04T20:31:37.220Z,5.12
2023-03-04T20:34:15.161Z,5.08
2023-03-04T20:36:47.376Z,5.30
2023-03-04T20:39:29.177Z,5.47
2023-03-04T20:42:10.517Z,5.42
2023-03-04T20:45:08.913Z,5.39
2023-03-04T20:47:49.494Z,5.42
2023-03-04T20:50:25.734Z,5.36
2023-03-04T20:52:58.777Z,5.21
2023-03-04T20:55:30.787Z,5.23
2023-03-04T20:58:02.710Z,5.26
2023-03-04T21:00:53.072Z,5.17
2023-03-04T21:03:32.994Z,5.08
2023-03-04T21:06:06.768Z,5.10
2023-03-04T21:08:36.630Z,5.03
2023-03-04T21:11:15.714Z,5.14
2023-03-04T21:13:48.820Z,5.16
2023-03-04T21:16:31.987Z,5.24
2023-03-04T21:19:04.994Z,5.02
2023-03-04T21:21:45.308Z,5.08
2023-03-04T21:24:29.646Z,5.13
2023-03-04T21:27:04.843Z,5.05
2023-03-04T21:29:43.456Z,4.98
2023-03-04T21:32:24.966Z,4.83
2023-03-04T21:34:56.866Z,4.88
2023-03-04T21:37:29.025Z,4.52
2023-03-04T21:40:02.382Z,4.69
2023-03-04T21:42:33.306Z,4.58
2023-03-04T21:45:04.073Z,4.40
2023-03-04T21:47:37.577Z,4.56
2023-03-04T21:50:12.541Z,4.32
2023-03-04T21:52:50.500Z,4.44
2023-03-04T21:55:20.349Z,4.18
2023-03-04T21:57:59.364Z,4.25
2023-03-04T22:01:03.640Z,4.18
2023-03-04T22:03:41.605Z,4.15
2023-03-04T22:06:28.453Z,4.14
2023-03-04T22:09:08.365Z,4.41
2023-03-04T22:11:40.803Z,4.27
2023-03-04T22:14:16.781Z,4.12
2023-03-04T22:16:55.818Z,4.17
2023-03-04T22:19:38.093Z,4.11
2023-03-04T22:22:10.467Z,4.04
2023-03-04T22:24:40.680Z,4.13
2023-03-04T22:27:19.160Z,3.96
2023-03-04T22:29:52.900Z,4.10
2023-03-04T22:32:35.906Z,4.01
2023-03-04T22:35:08.887Z,3.86
2023-03-04T22:37:40.823Z,3.94
2023-03-04T22:40:21.389Z,3.95
2023-03-04T22:42:56.503Z,3.86
2023-03-04T22:45:28.223Z,4.03
2023-03-04T22:48:09.664Z,3.97
2023-03-04T22:50:47.470Z,4.06
2023-03-04T22:53:18.397Z,3.89
2023-03-04T22:55:49.160Z,4.01
2023-03-04T23:01:25.856Z,3.95
2023-03-04T23:03:56.952Z,4.07
2023-03-04T23:06:32.690Z,3.84
2023-03-04T23:11:59.754Z,3.97
2023-03-04T23:14:29.409Z,4.11
2023-03-04T23:16:59.804Z,3.96
2023-03-04T23:19:33.034Z,4.11
2023-03-04T23:22:15.942Z,4.06
2023-03-04T23:24:48.169Z,3.96
2023-03-04T23:27:25.706Z,4.14
2023-03-04T23:30:02.185Z,3.98
2023-03-04T23:32:40.796Z,3.90
2023-03-04T23:35:13.822Z,4.11
2023-03-04T23:38:00.403Z,3.85
2023-03-04T23:40:30.101Z,3.93
2023-03-04T23:43:06.207Z,3.91
2023-03-04T23:45:49.699Z,3.74
2023-03-04T23:48:31.295Z,3.78
2023-03-04T23:51:04.587Z,3.96
2023-03-04T23:53:34.871Z,4.05
2023-03-04T23:56:11.761Z,3.78
2023-03-04T23:58:43.925Z,3.77
